Time;durP1;ratioP1;P1;durP2;ratioP2;P2;SDS_P1;SDS_P2;PMS_P1;PMS_P2;Temp;Humidity;BMP_temperature;BMP_pressure;BME280_temperature;BME280_humidity;BME280_pressure;Samples;Min_cycle;Max_cycle;Signal;HPM_P1;HPM_P2
2021/10/01 00:02:08;;;;;;;;;0.00;0.00;;;;;15.92;100.00;101837.75;5121495;27;45410;-66
2021/10/01 00:04:34;;;;;;;;;0.00;0.00;;;;;15.99;100.00;101846.38;5121286;27;45521;-66
2021/10/01 00:06:59;;;;;;;;;0.00;0.00;;;;;15.96;100.00;101854.34;5121554;27;46295;-66
2021/10/01 00:09:25;;;;;;;;;0.00;0.00;;;;;15.96;100.00;101848.22;5121330;27;45279;-66
2021/10/01 00:11:53;;;;;;;;;0.00;0.00;;;;;15.90;100.00;101842.16;5121418;27;45395;-66
2021/10/01 00:14:22;;;;;;;;;0.00;0.00;;;;;15.92;100.00;101848.28;5121646;27;45312;-66
2021/10/01 00:16:48;;;;;;;;;0.75;0.00;;;;;15.90;100.00;101842.16;5121210;27;46698;-65
2021/10/01 00:19:15;;;;;;;;;0.50;0.00;;;;;15.80;100.00;101827.41;5121040;27;45685;-66
2021/10/01 00:21:41;;;;;;;;;0.00;0.00;;;;;15.77;100.00;101831.88;5121528;27;45372;-66
2021/10/01 00:24:09;;;;;;;;;1.00;0.00;;;;;15.73;100.00;101833.69;5121537;27;45291;-65
2021/10/01 00:29:56;;;;;;;;;0.75;0.00;;;;;15.67;100.00;101830.31;5120932;27;45740;-66
2021/10/01 00:32:21;;;;;;;;;1.75;1.00;;;;;15.61;100.00;101829.53;5121331;27;45355;-66
2021/10/01 00:34:49;;;;;;;;;1.00;0.00;;;;;15.58;100.00;101824.31;5121494;27;45328;-66
2021/10/01 00:37:16;;;;;;;;;0.50;0.00;;;;;15.57;100.00;101827.78;5120960;27;45557;-66
2021/10/01 00:39:41;;;;;;;;;1.00;0.25;;;;;15.55;100.00;101826.97;5120663;27;45236;-66
2021/10/01 00:42:06;;;;;;;;;1.00;0.50;;;;;15.51;100.00;101827.91;5120989;27;45277;-66
2021/10/01 00:44:32;;;;;;;;;0.00;0.00;;;;;15.49;100.00;101827.06;5121046;27;45205;-66
2021/10/01 00:46:57;;;;;;;;;0.25;0.25;;;;;15.47;100.00;101833.25;5120603;27;45979;-66
2021/10/01 00:49:23;;;;;;;;;0.00;0.00;;;;;15.45;100.00;101835.06;5120622;27;45404;-66
2021/10/01 00:51:50;;;;;;;;;0.00;0.00;;;;;15.42;100.00;101828.09;5120613;27;45312;-66
2021/10/01 00:54:16;;;;;;;;;1.00;1.00;;;;;15.28;100.00;101809.88;5119929;27;45348;-66
2021/10/01 01:00:04;;;;;;;;;1.00;1.00;;;;;15.23;100.00;101805.59;5119640;27;45599;-66
2021/10/01 01:02:30;;;;;;;;;0.00;0.00;;;;;15.23;100.00;101801.19;5120714;27;45270;-66
2021/10/01 01:04:56;;;;;;;;;1.00;0.50;;;;;15.27;100.00;101815.16;5120607;27;45374;-66
2021/10/01 01:07:37;;;;;;;;;1.00;1.00;;;;;15.23;100.00;101800.34;5120603;27;46699;-66
2021/10/01 01:10:17;;;;;;;;;0.75;0.75;;;;;15.21;100.00;101800.34;5120480;27;45394;-66
2021/10/01 01:12:43;;;;;;;;;0.75;0.00;;;;;15.25;100.00;101802.03;5121130;27;45445;-65
2021/10/01 01:15:28;;;;;;;;;0.75;0.75;;;;;15.23;100.00;101800.34;5120538;27;45361;-66
2021/10/01 01:18:12;;;;;;;;;0.50;0.50;;;;;15.12;100.00;101778.56;5119904;27;46723;-66
2021/10/01 01:20:45;;;;;;;;;0.00;0.00;;;;;15.22;100.00;101793.34;5120190;27;45336;-64
2021/10/01 01:23:38;;;;;;;;;0.75;0.75;;;;;15.22;100.00;101793.34;5120161;27;45400;-65
2021/10/01 01:26:19;;;;;;;;;0.00;0.00;;;;;15.22;100.00;101790.69;5120206;27;45209;-65
2021/10/01 01:29:16;;;;;;;;;1.25;1.00;;;;;15.19;100.00;101789.00;5119762;27;46377;-65
2021/10/01 01:31:44;;;;;;;;;1.00;1.00;;;;;15.17;100.00;101788.16;5120181;27;45585;-65
2021/10/01 01:34:13;;;;;;;;;1.00;1.00;;;;;15.16;100.00;101783.78;5120238;27;45370;-65
2021/10/01 01:36:41;;;;;;;;;0.75;0.75;;;;;15.12;100.00;101779.44;5120311;27;45362;-65
2021/10/01 01:39:08;;;;;;;;;0.25;0.25;;;;;15.11;100.00;101772.44;5120048;27;45577;-65
2021/10/01 01:41:36;;;;;;;;;0.00;0.00;;;;;15.01;100.00;101763.84;5119703;27;45518;-66
2021/10/01 01:44:02;;;;;;;;;0.00;0.00;;;;;15.10;100.00;101773.34;5120234;27;45448;-66
2021/10/01 01:46:28;;;;;;;;;0.00;0.00;;;;;15.09;100.00;101770.75;5119948;27;45396;-66
2021/10/01 01:48:54;;;;;;;;;1.00;1.00;;;;;15.07;100.00;101762.00;5119619;27;46341;-66
2021/10/01 01:51:22;;;;;;;;;0.00;0.00;;;;;14.93;100.00;101743.81;5119798;27;45406;-66
2021/10/01 01:53:48;;;;;;;;;1.50;1.00;;;;;14.99;100.00;101759.50;5119964;27;45470;-66
2021/10/01 01:56:16;;;;;;;;;0.00;0.00;;;;;14.98;100.00;101761.28;5120088;27;45270;-66
2021/10/01 01:58:44;;;;;;;;;1.00;1.00;;;;;14.93;100.00;101738.56;5119516;27;45774;-66
2021/10/01 02:01:11;;;;;;;;;1.00;1.00;;;;;14.92;100.00;101742.94;5119289;27;45356;-66
2021/10/01 02:03:38;;;;;;;;;2.00;0.00;;;;;14.91;100.00;101749.09;5119786;27;45362;-66
2021/10/01 02:06:05;;;;;;;;;0.25;0.25;;;;;14.89;100.00;101745.63;5119735;27;45345;-66
2021/10/01 02:08:33;;;;;;;;;0.25;0.00;;;;;14.84;100.00;101734.31;5119231;27;47483;-66
2021/10/01 02:10:59;;;;;;;;;0.75;0.75;;;;;14.79;100.00;101722.16;5119465;27;45372;-66
2021/10/01 02:13:25;;;;;;;;;1.00;0.50;;;;;14.83;100.00;101729.97;5119563;27;45388;-66
2021/10/01 02:15:54;;;;;;;;;1.00;1.00;;;;;14.76;100.00;101723.06;5119850;27;45448;-66
2021/10/01 02:18:25;;;;;;;;;0.00;0.00;;;;;14.76;100.00;101723.06;5118894;27;46663;-66
2021/10/01 02:20:55;;;;;;;;;1.50;1.00;;;;;14.73;100.00;101720.50;5119107;27;45668;-66
2021/10/01 02:23:20;;;;;;;;;0.50;0.25;;;;;14.72;100.00;101726.66;5119644;27;45361;-66
2021/10/01 02:28:41;;;;;;;;;1.75;1.00;;;;;14.67;100.00;101710.06;5118974;27;45715;-66
2021/10/01 02:31:15;;;;;;;;;1.00;0.00;;;;;14.59;100.00;101701.44;5118850;27;45699;-66
2021/10/01 02:33:45;;;;;;;;;1.50;1.00;;;;;14.64;100.00;101702.22;5119239;27;45354;-66
2021/10/01 02:36:10;;;;;;;;;1.00;1.00;;;;;14.57;100.00;101679.56;5119066;27;45357;-66
2021/10/01 02:38:36;;;;;;;;;2.00;1.00;;;;;14.57;100.00;101685.69;5118727;27;46227;-66
2021/10/01 02:41:03;;;;;;;;;1.00;0.75;;;;;14.58;100.00;101692.69;5118775;27;45707;-66
2021/10/01 02:43:28;;;;;;;;;1.00;0.00;;;;;14.57;100.00;101690.06;5118886;27;45367;-66
2021/10/01 02:45:54;;;;;;;;;0.00;0.00;;;;;14.57;100.00;101690.06;5119125;27;45263;-64
2021/10/01 02:48:19;;;;;;;;;1.00;0.00;;;;;14.46;100.00;101669.19;5118565;27;47080;-65
2021/10/01 02:50:48;;;;;;;;;1.75;1.75;;;;;14.59;100.00;101691.78;5118543;27;45377;-66
2021/10/01 02:53:21;;;;;;;;;1.00;0.50;;;;;14.58;100.00;101691.81;5118683;27;45474;-65
2021/10/01 02:56:01;;;;;;;;;0.00;0.00;;;;;14.58;100.00;101691.81;5119219;27;45331;-65
2021/10/01 02:58:35;;;;;;;;;1.00;1.00;;;;;14.59;100.00;101688.28;5118230;27;46170;-66
2021/10/01 03:01:05;;;;;;;;;1.00;1.00;;;;;14.56;100.00;101675.19;5118428;27;45212;-66
2021/10/01 03:03:36;;;;;;;;;1.25;1.25;;;;;14.59;100.00;101680.41;5119060;27;45359;-66
2021/10/01 03:06:02;;;;;;;;;1.00;1.00;;;;;14.56;100.00;101670.81;5119175;27;45273;-65
2021/10/01 03:08:30;;;;;;;;;1.50;1.25;;;;;14.55;100.00;101665.59;5118668;27;45330;-65
2021/10/01 03:10:56;;;;;;;;;2.00;1.00;;;;;14.55;100.00;101670.84;5118567;27;45572;-65
2021/10/01 03:13:23;;;;;;;;;0.00;0.00;;;;;14.50;100.00;101659.53;5118702;27;45332;-66
2021/10/01 03:15:50;;;;;;;;;2.00;1.00;;;;;14.54;100.00;101663.84;5118989;27;45501;-65
2021/10/01 03:18:16;;;;;;;;;1.00;1.00;;;;;14.54;100.00;101663.84;5120782;27;45784;-65
2021/10/01 03:20:42;;;;;;;;;0.00;0.00;;;;;14.45;100.00;101654.31;5122148;27;45247;-66
2021/10/01 03:23:10;;;;;;;;;1.00;1.00;;;;;14.40;100.00;101643.00;5122418;27;45258;-65
2021/10/01 03:25:38;;;;;;;;;1.00;1.00;;;;;14.49;100.00;101665.69;5122117;27;45495;-66
2021/10/01 03:31:27;;;;;;;;;1.00;0.50;;;;;14.45;100.00;101658.72;5121840;27;45562;-66
2021/10/01 03:33:54;;;;;;;;;1.25;0.50;;;;;14.43;100.00;101656.13;5122160;27;45411;-66
2021/10/01 03:36:20;;;;;;;;;1.75;1.00;;;;;14.38;100.00;101637.75;5121975;27;45315;-66
2021/10/01 03:38:47;;;;;;;;;1.75;1.00;;;;;14.41;100.00;101650.84;5121845;27;45409;-66
2021/10/01 03:41:15;;;;;;;;;0.75;0.75;;;;;14.33;100.00;101634.34;5121657;27;45240;-66
2021/10/01 03:43:40;;;;;;;;;2.00;1.00;;;;;14.36;100.00;101639.56;5121714;27;45322;-66
2021/10/01 03:46:05;;;;;;;;;1.00;1.00;;;;;14.32;100.00;101627.38;5121887;27;45507;-66
2021/10/01 03:48:31;;;;;;;;;1.25;1.00;;;;;14.31;100.00;101628.25;5121425;27;45553;-65
2021/10/01 03:50:56;;;;;;;;;3.00;1.25;;;;;14.35;100.00;101629.06;5121316;27;45347;-65
2021/10/01 03:53:22;;;;;;;;;2.00;2.00;;;;;14.28;100.00;101619.56;5121819;27;45687;-65
2021/10/01 03:55:47;;;;;;;;;1.75;0.75;;;;;14.31;100.00;101628.25;5121664;27;45395;-66
2021/10/01 04:01:34;;;;;;;;;1.25;1.00;;;;;14.21;100.00;101610.03;5119615;27;45476;-66
2021/10/01 04:03:59;;;;;;;;;2.25;1.75;;;;;14.26;100.00;101622.22;5121428;27;45614;-66
2021/10/01 04:06:25;;;;;;;;;1.25;1.00;;;;;14.25;100.00;101609.94;5121871;27;45277;-66
2021/10/01 04:08:50;;;;;;;;;1.00;1.00;;;;;14.18;100.00;101600.44;5121325;27;46714;-66
2021/10/01 04:11:16;;;;;;;;;2.00;1.00;;;;;14.21;100.00;101602.13;5121398;27;45344;-66
2021/10/01 04:13:41;;;;;;;;;2.25;2.00;;;;;14.19;100.00;101598.66;5121528;27;45328;-66
2021/10/01 04:16:07;;;;;;;;;0.50;0.50;;;;;14.24;100.00;101607.34;5121589;27;45309;-65
2021/10/01 04:18:32;;;;;;;;;2.25;1.00;;;;;14.20;100.00;101606.53;5121113;27;46824;-66
2021/10/01 04:20:57;;;;;;;;;1.00;1.00;;;;;14.21;100.00;101615.28;5121237;27;45340;-66
2021/10/01 04:23:23;;;;;;;;;3.00;2.00;;;;;14.17;100.00;101601.31;5121466;27;45660;-66
2021/10/01 04:25:49;;;;;;;;;1.50;1.00;;;;;14.13;100.00;101602.25;5121157;27;45328;-66
2021/10/01 04:31:36;;;;;;;;;2.00;2.00;;;;;14.16;100.00;101612.72;5120735;27;45373;-66
2021/10/01 04:34:03;;;;;;;;;2.00;2.00;;;;;14.14;100.00;101608.38;5121002;27;45407;-66
2021/10/01 04:36:31;;;;;;;;;2.00;1.50;;;;;14.15;100.00;101610.13;5121239;27;45465;-66
2021/10/01 04:38:56;;;;;;;;;3.00;2.00;;;;;14.07;100.00;101597.97;5120967;27;46471;-67
2021/10/01 04:41:22;;;;;;;;;3.25;2.25;;;;;14.07;100.00;101594.50;5120548;27;45209;-66
2021/10/01 04:47:09;;;;;;;;;2.00;1.00;;;;;14.05;100.00;101602.38;5120749;27;45425;-67
2021/10/01 04:49:34;;;;;;;;;1.00;1.00;;;;;13.91;100.00;101580.72;5120259;27;47011;-64
2021/10/01 04:51:59;;;;;;;;;1.00;1.00;;;;;13.94;100.00;101593.78;5120683;27;45337;-65
2021/10/01 04:54:25;;;;;;;;;2.00;2.00;;;;;13.99;100.00;101599.84;5120592;27;45423;-65
2021/10/01 04:56:50;;;;;;;;;3.00;2.00;;;;;13.98;100.00;101611.22;5120916;27;45366;-65
2021/10/01 04:59:15;;;;;;;;;3.00;2.00;;;;;13.97;100.00;101604.25;5120663;27;46340;-66
2021/10/01 05:01:41;;;;;;;;;4.00;2.00;;;;;13.95;100.00;101605.16;5120356;27;45292;-66
2021/10/01 05:04:06;;;;;;;;;1.25;1.25;;;;;13.93;100.00;101607.81;5101701;27;45389;-66
2021/10/01 05:06:33;;;;;;;;;2.25;2.00;;;;;13.90;100.00;101606.97;5121010;27;45270;-66
2021/10/01 05:08:58;;;;;;;;;2.00;2.00;;;;;13.89;100.00;101597.38;5120315;27;45431;-66
2021/10/01 05:11:24;;;;;;;;;2.00;2.00;;;;;13.83;100.00;101594.84;5120006;27;45296;-66
2021/10/01 05:17:11;;;;;;;;;1.25;1.00;;;;;13.81;100.00;101594.00;5120300;27;45353;-65
2021/10/01 05:19:36;;;;;;;;;1.75;1.75;;;;;13.79;100.00;101588.75;5119778;27;47190;-65
2021/10/01 05:22:02;;;;;;;;;1.25;1.25;;;;;13.84;100.00;101604.44;5119723;27;45310;-65
2021/10/01 05:24:27;;;;;;;;;2.00;1.00;;;;;13.81;100.00;101597.50;5120273;27;45267;-66
2021/10/01 05:26:53;;;;;;;;;5.00;1.00;;;;;13.77;100.00;101594.00;5119953;27;45229;-65
2021/10/01 05:29:18;;;;;;;;;2.00;1.00;;;;;13.69;100.00;101582.75;5119536;27;46497;-66
2021/10/01 05:31:43;;;;;;;;;1.00;1.00;;;;;13.69;100.00;101582.75;5119732;27;45314;-66
2021/10/01 05:34:09;;;;;;;;;2.50;1.75;;;;;13.70;100.00;101584.50;5120107;27;45279;-66
2021/10/01 05:36:34;;;;;;;;;2.00;1.00;;;;;13.69;100.00;101582.75;5120185;27;45319;-66
2021/10/01 05:39:02;;;;;;;;;2.25;2.25;;;;;13.71;100.00;101590.63;5119941;27;46352;-65
2021/10/01 05:41:31;;;;;;;;;2.00;1.00;;;;;13.66;100.00;101588.06;5119222;27;45419;-66
2021/10/01 05:47:18;;;;;;;;;2.00;1.50;;;;;13.67;100.00;101583.69;5119691;27;45304;-64
2021/10/01 05:49:43;;;;;;;;;2.00;1.00;;;;;13.66;100.00;101588.06;5119305;27;46505;-66
2021/10/01 05:52:16;;;;;;;;;1.00;0.50;;;;;13.65;100.00;101572.34;5119260;27;45266;-64
2021/10/01 05:54:42;;;;;;;;;2.00;1.00;;;;;13.66;100.00;101567.06;5119813;27;45363;-64
2021/10/01 05:57:09;;;;;;;;;2.50;2.00;;;;;13.61;100.00;101561.03;5119315;27;45373;-64
2021/10/01 05:59:37;;;;;;;;;2.00;1.00;;;;;13.62;100.00;101560.13;5119326;27;46444;-64
2021/10/01 06:02:03;;;;;;;;;2.75;2.00;;;;;13.69;100.00;101566.16;5119154;27;45447;-64
2021/10/01 06:04:30;;;;;;;;;2.75;2.00;;;;;13.68;100.00;101562.66;5119284;27;45267;-63
2021/10/01 06:06:55;;;;;;;;;3.00;3.00;;;;;13.71;100.00;101559.13;5119618;27;45238;-65
2021/10/01 06:09:22;;;;;;;;;2.50;1.50;;;;;13.72;100.00;101561.72;5119190;27;46473;-64
2021/10/01 06:11:47;;;;;;;;;2.00;1.75;;;;;13.73;100.00;101560.84;5119021;27;45777;-64
2021/10/01 06:17:35;;;;;;;;;3.00;3.00;;;;;13.81;100.00;101559.88;5119243;27;45462;-66
2021/10/01 06:20:03;;;;;;;;;3.50;2.00;;;;;13.86;100.00;101568.53;5118964;27;46040;-65
2021/10/01 06:22:29;;;;;;;;;2.00;1.50;;;;;13.90;100.00;101565.84;5118758;27;45357;-66
2021/10/01 06:24:54;;;;;;;;;0.75;0.75;;;;;13.92;100.00;101564.06;5118693;27;45348;-66
2021/10/01 06:27:20;;;;;;;;;2.00;1.25;;;;;13.99;100.00;101570.94;5119092;27;45377;-64
2021/10/01 06:29:46;;;;;;;;;1.75;1.00;;;;;14.01;100.00;101566.53;5118689;27;45341;-65
2021/10/01 06:32:12;;;;;;;;;2.00;2.00;;;;;14.07;100.00;101565.59;5118663;27;45656;-65
2021/10/01 06:34:38;;;;;;;;;2.25;2.00;;;;;14.14;100.00;101569.00;5119047;27;45293;-64
2021/10/01 06:37:03;;;;;;;;;3.00;3.00;;;;;14.15;100.00;101561.09;5119094;27;45168;-66
2021/10/01 06:39:29;;;;;;;;;2.00;1.50;;;;;14.24;100.00;101558.31;5118953;27;45531;-65
2021/10/01 06:41:54;;;;;;;;;3.00;2.00;;;;;14.31;100.00;101548.59;5118717;27;45280;-65
2021/10/01 08:21:24;;;;;;;;;2.75;1.00;;;;;17.67;100.00;101525.72;5100104;27;45584;-65
2021/10/01 08:23:50;;;;;;;;;0.50;0.50;;;;;17.99;100.00;101499.16;5100193;27;45340;-65
2021/10/01 08:26:15;;;;;;;;;3.00;1.00;;;;;18.58;100.00;101501.56;5100372;27;45211;-65
2021/10/01 08:32:04;;;;;;;;;1.00;1.00;;;;;19.32;100.00;101497.09;5099870;27;45285;-65
2021/10/01 08:34:41;;;;;;;;;1.00;1.00;;;;;19.14;100.00;101503.94;5100399;27;45356;-65
2021/10/01 08:37:07;;;;;;;;;2.00;1.00;;;;;18.94;100.00;101502.03;5100584;27;45389;-65
2021/10/01 08:39:32;;;;;;;;;0.00;0.00;;;;;18.91;100.00;101503.94;5100221;27;45590;-64
2021/10/01 08:41:58;;;;;;;;;1.75;1.00;;;;;18.79;100.00;101493.81;5100231;27;45265;-65
2021/10/01 08:47:46;;;;;;;;;1.25;0.75;;;;;18.63;100.00;101485.56;5100329;27;45407;-65
2021/10/01 08:50:15;;;;;;;;;1.00;1.00;;;;;18.72;100.00;101501.06;5099899;27;45633;-65
2021/10/01 08:52:41;;;;;;;;;0.00;0.00;;;;;18.62;100.00;101481.16;5099547;27;45757;-64
2021/10/01 08:55:09;;;;;;;;;2.25;1.00;;;;;18.58;100.00;101472.47;5099756;27;45374;-65
2021/10/01 08:57:35;;;;;;;;;1.00;1.00;;;;;18.91;100.00;101485.41;5099851;27;45569;-65
2021/10/01 09:03:40;;;;;;;;;1.00;1.00;;;;;19.13;100.00;101475.75;5118650;27;46217;-65
2021/10/01 09:06:06;;;;;;;;;1.25;1.00;;;;;19.07;100.00;101480.41;5120486;27;45318;-65
2021/10/01 09:08:33;;;;;;;;;2.00;1.00;;;;;19.03;100.00;101490.25;5120350;27;45223;-65
2021/10/01 09:11:00;;;;;;;;;1.25;0.00;;;;;18.98;100.00;101486.88;5119984;27;46986;-65
2021/10/01 09:13:26;;;;;;;;;1.75;0.50;;;;;18.94;100.00;101469.41;5119956;27;45450;-66
2021/10/01 09:16:04;;;;;;;;;1.25;1.00;;;;;19.02;100.00;101480.59;5119191;27;45389;-65
2021/10/01 09:18:32;;;;;;;;;1.00;1.00;;;;;18.99;100.00;101480.69;5120095;27;45485;-66
2021/10/01 09:21:21;;;;;;;;;1.75;1.00;;;;;18.92;100.00;101484.47;5119935;27;46390;-66
2021/10/01 09:24:03;;;;;;;;;2.00;1.00;;;;;18.91;100.00;101474.81;5118655;27;45691;-65
2021/10/01 09:26:31;;;;;;;;;1.00;1.00;;;;;18.81;100.00;101473.44;5119882;27;45270;-66
2021/10/01 09:28:58;;;;;;;;;1.00;1.00;;;;;18.70;100.00;101472.97;5120032;27;45463;-66
2021/10/01 09:31:37;;;;;;;;;1.00;0.50;;;;;18.59;100.00;101468.91;5119646;27;46151;-66
2021/10/01 09:34:06;;;;;;;;;2.00;1.00;;;;;18.59;100.00;101478.63;5101274;27;45245;-66
2021/10/01 09:36:32;;;;;;;;;1.00;0.75;;;;;18.61;100.00;101476.78;5119663;27;45417;-65
2021/10/01 09:38:58;;;;;;;;;1.00;1.00;;;;;18.64;100.00;101469.63;5119918;27;45477;-66
2021/10/01 09:41:25;;;;;;;;;1.00;0.75;;;;;18.65;100.00;101463.41;5119554;27;46252;-67
2021/10/01 09:44:07;;;;;;;;;1.00;1.00;;;;;18.73;100.00;101468.41;5119698;27;45410;-65
2021/10/01 09:46:38;;;;;;;;;1.00;1.00;;;;;18.80;100.00;101469.06;5119633;27;45470;-65
2021/10/01 09:49:05;;;;;;;;;2.00;2.00;;;;;18.92;100.00;101480.06;5119919;27;45414;-66
2021/10/01 09:51:32;;;;;;;;;1.00;1.00;;;;;19.24;100.00;101478.84;5119317;27;46433;-66
2021/10/01 09:53:57;;;;;;;;;1.25;1.00;;;;;19.75;100.00;101469.78;5119685;27;45290;-66
2021/10/01 09:56:31;;;;;;;;;1.00;0.00;;;;;20.44;100.00;101489.00;5119659;27;45335;-66
2021/10/01 09:59:09;;;;;;;;;3.25;3.00;;;;;20.83;100.00;101468.75;5119443;27;45333;-66
2021/10/01 10:01:55;;;;;;;;;1.00;1.00;;;;;21.04;100.00;101462.44;5119012;27;46314;-66
2021/10/01 10:04:20;;;;;;;;;1.00;1.00;;;;;21.03;100.00;101466.88;5118904;27;45722;-66
2021/10/01 10:06:46;;;;;;;;;2.00;1.00;;;;;21.16;100.00;101468.97;5119421;27;45362;-66
2021/10/01 10:09:12;;;;;;;;;3.00;1.00;;;;;21.44;100.00;101472.06;5119322;27;45337;-67
2021/10/01 10:11:42;;;;;;;;;1.25;1.00;;;;;21.64;100.00;101466.66;5118848;27;45465;-66
2021/10/01 10:14:12;;;;;;;;;1.25;1.00;;;;;21.71;100.00;101475.19;5119153;27;45491;-65
2021/10/01 10:16:39;;;;;;;;;1.00;1.00;;;;;21.65;100.00;101463.06;5118947;27;45346;-65
2021/10/01 10:19:15;;;;;;;;;2.00;1.75;;;;;21.71;100.00;101462.75;5119091;27;45397;-64
2021/10/01 10:21:40;;;;;;;;;1.50;1.50;;;;;21.78;100.00;101463.34;5118931;27;47043;-65
2021/10/01 10:24:06;;;;;;;;;2.75;1.00;;;;;21.55;100.00;101456.50;5118902;27;45350;-65
2021/10/01 10:26:32;;;;;;;;;1.00;1.00;;;;;21.31;100.00;101450.56;5119251;27;45365;-66
2021/10/01 10:29:02;;;;;;;;;0.50;0.50;;;;;21.08;100.00;101450.75;5119303;27;45328;-65
2021/10/01 10:31:31;;;;;;;;;2.00;1.25;;;;;20.88;100.00;101449.00;5118593;27;47173;-66
2021/10/01 10:33:57;;;;;;;;;2.75;1.00;;;;;20.72;100.00;101443.53;5117480;27;45405;-66
2021/10/01 10:36:44;;;;;;;;;2.00;1.00;;;;;20.63;100.00;101454.56;5118807;27;45431;-65
2021/10/01 10:39:12;;;;;;;;;1.00;0.00;;;;;20.43;100.00;101458.09;5119334;27;45354;-65
2021/10/01 10:41:39;;;;;;;;;2.00;1.00;;;;;20.15;100.00;101421.28;5118545;27;46268;-65
2021/10/01 10:44:05;;;;;;;;;2.00;2.00;;;;;20.06;100.00;101434.91;5118779;27;45572;-65
2021/10/01 10:46:36;;;;;;;;;1.00;1.00;;;;;19.91;100.00;101427.59;5118769;27;45320;-65
2021/10/01 10:49:28;;;;;;;;;0.75;0.75;;;;;19.65;100.00;101403.97;5118699;27;45503;-66
2021/10/01 10:51:59;;;;;;;;;3.00;1.00;;;;;19.68;100.00;101425.03;5114623;27;46738;-66
2021/10/01 10:54:26;;;;;;;;;1.25;1.00;;;;;19.58;100.00;101421.94;5118498;27;45596;-66
2021/10/01 10:57:16;;;;;;;;;3.50;3.00;;;;;19.66;100.00;101427.75;5118745;27;45338;-65
2021/10/01 10:59:54;;;;;;;;;0.75;0.75;;;;;19.73;100.00;101423.97;5118873;27;45316;-66
2021/10/01 11:02:32;;;;;;;;;1.75;1.00;;;;;19.83;100.00;101424.41;5118386;27;46238;-67
2021/10/01 11:05:26;;;;;;;;;1.00;1.00;;;;;20.04;100.00;101409.41;5118331;27;45589;-66
2021/10/01 11:08:01;;;;;;;;;1.50;1.00;;;;;20.38;100.00;101414.97;5118659;27;45287;-66
2021/10/01 11:10:35;;;;;;;;;0.75;0.50;;;;;21.05;100.00;101411.94;5118488;27;45455;-65
2021/10/01 11:13:18;;;;;;;;;0.00;0.00;;;;;21.83;100.00;101408.13;5118196;27;47115;-66
2021/10/01 11:16:09;;;;;;;;;1.00;1.00;;;;;22.14;100.00;101402.13;5118481;27;45699;-66
2021/10/01 11:18:47;;;;;;;;;2.00;1.25;;;;;22.13;100.00;101394.22;5118477;27;45433;-65
2021/10/01 11:21:24;;;;;;;;;1.25;1.00;;;;;22.07;100.00;101406.06;5118641;27;45391;-64
2021/10/01 11:24:01;;;;;;;;;1.25;1.00;;;;;21.98;100.00;101387.91;5117888;27;46243;-65
2021/10/01 11:26:32;;;;;;;;;2.00;0.50;;;;;21.90;100.00;101382.09;5118215;27;45658;-66
2021/10/01 11:32:22;;;;;;;;;1.50;0.75;;;;;21.96;100.00;101387.13;5118351;27;45484;-66
2021/10/01 11:34:51;;;;;;;;;2.00;1.50;;;;;21.88;100.00;101376.84;5118090;27;45418;-66
2021/10/01 11:37:20;;;;;;;;;0.00;0.00;;;;;21.77;100.00;101381.88;5118162;27;45636;-67
2021/10/01 11:39:45;;;;;;;;;1.25;1.25;;;;;21.74;100.00;101375.84;5121087;27;45343;-66
2021/10/01 11:42:23;;;;;;;;;2.75;1.75;;;;;22.02;100.00;101374.34;5122167;27;45329;-66
2021/10/01 11:48:12;;;;;;;;;1.00;1.00;;;;;22.73;100.00;101375.94;5121655;27;45317;-66
2021/10/01 11:50:49;;;;;;;;;0.00;0.00;;;;;22.80;100.00;101366.66;5121488;27;45467;-65
2021/10/01 11:53:16;;;;;;;;;1.00;1.00;;;;;22.82;100.00;101356.81;5121742;27;45262;-66
2021/10/01 11:55:54;;;;;;;;;2.00;0.50;;;;;22.94;100.00;101355.31;5121436;27;46452;-68
2021/10/01 11:58:23;;;;;;;;;0.50;0.00;;;;;22.81;100.00;101369.28;5121522;27;45452;-67
2021/10/01 12:04:10;;;;;;;;;1.50;0.50;;;;;22.87;100.00;101345.00;5120204;27;45397;-65
2021/10/01 12:06:35;;;;;;;;;2.00;2.00;;;;;23.08;100.00;101344.69;5121063;27;46432;-66
2021/10/01 12:09:07;;;;;;;;;1.00;1.00;;;;;23.09;100.00;101343.78;5121109;27;45244;-66
2021/10/01 12:11:36;;;;;;;;;2.00;1.25;;;;;22.77;100.00;101310.94;5121161;27;45376;-66
2021/10/01 12:14:27;;;;;;;;;1.00;0.00;;;;;22.54;100.00;101322.84;5121494;27;45363;-65
2021/10/01 12:16:56;;;;;;;;;1.25;1.00;;;;;22.28;100.00;101330.44;5116854;27;46427;-66
2021/10/01 12:19:23;;;;;;;;;1.50;1.00;;;;;22.02;100.00;101328.28;5120652;27;45525;-66
2021/10/01 12:22:07;;;;;;;;;2.00;1.00;;;;;21.84;100.00;101335.41;5120920;27;45292;-65
2021/10/01 12:24:41;;;;;;;;;1.75;1.00;;;;;21.67;100.00;101327.44;5121422;27;45209;-65
2021/10/01 12:27:07;;;;;;;;;1.00;1.00;;;;;21.55;100.00;101333.41;5120889;27;45424;-67
2021/10/01 12:29:40;;;;;;;;;1.00;1.00;;;;;21.34;100.00;101322.03;5120396;27;45361;-66
2021/10/01 12:32:06;;;;;;;;;4.25;3.00;;;;;21.17;100.00;101312.22;5121029;27;45351;-66
2021/10/01 12:34:41;;;;;;;;;6.25;5.50;;;;;21.14;100.00;101308.84;5120700;27;45223;-66
2021/10/01 12:37:08;;;;;;;;;22.00;15.50;;;;;21.20;100.00;101311.19;5120320;27;46175;-66
2021/10/01 12:39:36;;;;;;;;;1.50;1.50;;;;;21.20;100.00;101298.78;5120885;27;45262;-66
2021/10/01 12:42:02;;;;;;;;;4.00;2.50;;;;;21.29;100.00;101319.63;5120483;27;45385;-66
2021/10/01 12:44:32;;;;;;;;;3.75;3.00;;;;;21.22;100.00;101306.66;5120638;27;45554;-65
2021/10/01 12:46:58;;;;;;;;;2.25;2.25;;;;;21.33;100.00;101312.34;5119974;27;47222;-65
2021/10/01 12:49:30;;;;;;;;;4.75;3.25;;;;;21.31;100.00;101311.56;5119283;27;45278;-66
2021/10/01 12:52:03;;;;;;;;;6.75;4.00;;;;;21.26;100.00;101310.91;5119952;27;45348;-66
2021/10/01 12:54:34;;;;;;;;;4.00;3.00;;;;;21.17;100.00;101306.91;5119798;27;45315;-65
2021/10/01 12:57:14;;;;;;;;;3.00;2.00;;;;;21.01;100.00;101298.81;5120140;27;47531;-66
2021/10/01 12:59:44;;;;;;;;;2.25;1.50;;;;;20.89;100.00;101290.59;5120135;27;45462;-66
2021/10/01 13:02:15;;;;;;;;;1.00;0.00;;;;;20.87;100.00;101289.81;5120381;27;45338;-66
2021/10/01 13:05:09;;;;;;;;;2.00;2.00;;;;;20.86;100.00;101296.06;5120096;27;45436;-64
2021/10/01 13:07:40;;;;;;;;;1.75;0.50;;;;;20.77;100.00;101292.03;5036400;28;46715;-65
2021/10/01 13:10:17;;;;;;;;;0.75;0.75;;;;;20.58;100.00;101281.44;5019403;28;45391;-66
2021/10/01 13:12:55;;;;;;;;;4.00;2.50;;;;;20.38;100.00;101285.00;5036652;28;45338;-66
2021/10/01 13:15:41;;;;;;;;;6.75;4.75;;;;;20.15;100.00;101288.72;5036556;28;45400;-65
2021/10/01 13:18:42;;;;;;;;;1.00;1.00;;;;;19.91;100.00;101292.44;5035993;28;47243;-66
2021/10/01 13:21:12;;;;;;;;;2.00;1.75;;;;;19.52;100.00;101293.22;5035984;28;45693;-65
2021/10/01 13:23:42;;;;;;;;;7.75;6.50;;;;;19.22;100.00;101297.13;5036211;28;45348;-65
2021/10/01 13:26:11;;;;;;;;;5.75;4.75;;;;;18.97;100.00;101302.56;5036403;28;45405;-65
2021/10/01 13:28:36;;;;;;;;;1.00;0.00;;;;;18.74;100.00;101298.19;5019213;28;48004;-65
2021/10/01 13:31:02;;;;;;;;;9.00;6.75;;;;;18.55;100.00;101307.72;5035853;28;45365;-66
2021/10/01 13:33:27;;;;;;;;;2.00;2.00;;;;;18.39;100.00;101291.59;5035954;28;45406;-66
2021/10/01 13:35:54;;;;;;;;;2.00;2.00;;;;;18.28;100.00;101304.31;5036285;28;45557;-65
2021/10/01 13:38:28;;;;;;;;;7.50;5.25;;;;;18.21;100.00;101303.69;5035947;28;46315;-66
2021/10/01 13:40:54;;;;;;;;;2.25;2.25;;;;;18.05;100.00;101289.31;5036005;28;45272;-66
2021/10/01 13:43:19;;;;;;;;;2.50;2.00;;;;;17.96;100.00;101292.31;5054708;27;45357;-66
2021/10/01 13:45:45;;;;;;;;;1.25;1.00;;;;;17.90;100.00;101274.03;5119826;27;45274;-66
2021/10/01 13:48:12;;;;;;;;;3.00;3.00;;;;;17.95;100.00;101288.81;5119200;27;47518;-66
2021/10/01 13:50:38;;;;;;;;;3.00;2.75;;;;;17.90;100.00;101274.91;5118907;27;45359;-65
2021/10/01 13:53:03;;;;;;;;;2.75;2.50;;;;;17.98;100.00;101283.41;5119434;27;45343;-66
2021/10/01 13:55:28;;;;;;;;;1.50;1.50;;;;;18.00;100.00;101286.84;5120121;27;45420;-66
2021/10/01 13:57:54;;;;;;;;;3.00;3.00;;;;;17.98;100.00;101286.03;5119294;27;46332;-66